sensor_id;sensor_type;location;lat;lon;timestamp;pressure;altitude;pressure_sealevel;temperature;humidity
9110;BME280;4590;51.462;6.692;2023-03-14T01:33:05;98853.97;;;12.06;66.88
9110;BME280;4590;51.462;6.692;2023-03-14T01:35:30;98845.50;;;12.14;65.93
9110;BME280;4590;51.462;6.692;2023-03-14T01:37:56;98846.94;;;12.08;66.51
9110;BME280;4590;51.462;6.692;2023-03-14T01:40:26;98843.84;;;12.10;66.18
9110;BME280;4590;51.462;6.692;2023-03-14T03:18:50;98808.28;;;11.85;66.61
9110;BME280;4590;51.462;6.692;2023-03-14T03:41:56;98787.22;;;11.97;66.12
9110;BME280;4590;51.462;6.692;2023-03-14T03:44:22;98784.78;;;11.91;66.49
9110;BME280;4590;51.462;6.692;2023-03-14T05:27:27;98715.53;;;10.84;72.23
9110;BME280;4590;51.462;6.692;2023-03-14T07:05:12;98703.72;;;11.19;74.76
9110;BME280;4590;51.462;6.692;2023-03-14T09:40:53;99012.09;;;10.79;72.73
9110;BME280;4590;51.462;6.692;2023-03-14T09:43:19;99027.59;;;10.71;72.54
9110;BME280;4590;51.462;6.692;2023-03-14T09:45:47;99028.25;;;10.80;71.86
9110;BME280;4590;51.462;6.692;2023-03-14T09:48:20;99043.66;;;10.69;72.22
9110;BME280;4590;51.462;6.692;2023-03-14T09:50:49;99056.81;;;10.76;72.33
9110;BME280;4590;51.462;6.692;2023-03-14T09:53:20;99070.03;;;10.70;72.09
9110;BME280;4590;51.462;6.692;2023-03-14T09:55:50;99077.25;;;10.63;72.30
9110;BME280;4590;51.462;6.692;2023-03-14T09:58:23;99083.22;;;10.40;72.99
9110;BME280;4590;51.462;6.692;2023-03-14T10:00:54;99091.03;;;10.50;72.27
9110;BME280;4590;51.462;6.692;2023-03-14T10:03:34;99105.81;;;10.46;72.73
9110;BME280;4590;51.462;6.692;2023-03-14T10:06:00;99101.56;;;10.48;72.19
9110;BME280;4590;51.462;6.692;2023-03-14T10:08:26;99103.88;;;10.34;72.91
9110;BME280;4590;51.462;6.692;2023-03-14T10:10:52;99113.38;;;10.37;72.99
9110;BME280;4590;51.462;6.692;2023-03-14T10:13:26;99125.19;;;10.37;72.63
9110;BME280;4590;51.462;6.692;2023-03-14T10:16:03;99136.28;;;10.41;72.35
9110;BME280;4590;51.462;6.692;2023-03-14T10:18:31;99157.47;;;10.40;72.47
9110;BME280;4590;51.462;6.692;2023-03-14T10:21:16;99165.50;;;10.33;72.48
9110;BME280;4590;51.462;6.692;2023-03-14T10:23:42;99184.28;;;10.31;72.20
9110;BME280;4590;51.462;6.692;2023-03-14T10:26:13;99207.41;;;10.30;71.86
9110;BME280;4590;51.462;6.692;2023-03-14T10:28:47;99216.69;;;10.26;72.12
9110;BME280;4590;51.462;6.692;2023-03-14T10:31:14;99224.47;;;10.24;71.78
9110;BME280;4590;51.462;6.692;2023-03-14T10:33:39;99233.59;;;10.15;72.02
9110;BME280;4590;51.462;6.692;2023-03-14T10:36:15;99240.34;;;10.06;71.27
9110;BME280;4590;51.462;6.692;2023-03-14T10:38:42;99280.81;;;9.97;71.23
9110;BME280;4590;51.462;6.692;2023-03-14T10:41:19;99298.66;;;9.70;70.36
9110;BME280;4590;51.462;6.692;2023-03-14T10:44:02;99309.59;;;9.58;70.44
9110;BME280;4590;51.462;6.692;2023-03-14T10:46:31;99318.22;;;9.47;70.30
9110;BME280;4590;51.462;6.692;2023-03-14T10:48:57;99343.50;;;9.32;70.19
9110;BME280;4590;51.462;6.692;2023-03-14T10:51:27;99365.78;;;9.31;70.25
9110;BME280;4590;51.462;6.692;2023-03-14T10:54:12;99371.59;;;9.29;70.32
9110;BME280;4590;51.462;6.692;2023-03-14T10:56:38;99375.16;;;9.30;70.58
9110;BME280;4590;51.462;6.692;2023-03-14T10:59:07;99390.00;;;9.29;70.39
9110;BME280;4590;51.462;6.692;2023-03-14T11:01:42;99387.41;;;9.32;70.66
9110;BME280;4590;51.462;6.692;2023-03-14T11:07:14;99411.56;;;9.47;70.36
9110;BME280;4590;51.462;6.692;2023-03-14T11:09:56;99416.16;;;9.64;70.12
9110;BME280;4590;51.462;6.692;2023-03-14T11:15:02;99438.16;;;9.85;69.57
9110;BME280;4590;51.462;6.692;2023-03-14T11:17:39;99446.66;;;9.92;69.40
9110;BME280;4590;51.462;6.692;2023-03-14T11:20:25;99460.41;;;9.92;68.89
9110;BME280;4590;51.462;6.692;2023-03-14T11:22:59;99469.59;;;9.96;67.94
9110;BME280;4590;51.462;6.692;2023-03-14T11:25:38;99489.06;;;9.91;67.23
9110;BME280;4590;51.462;6.692;2023-03-14T11:28:38;99501.19;;;9.90;66.84
9110;BME280;4590;51.462;6.692;2023-03-14T11:31:27;99507.47;;;9.91;66.71
9110;BME280;4590;51.462;6.692;2023-03-14T11:36:30;99518.78;;;9.89;66.49
9110;BME280;4590;51.462;6.692;2023-03-14T11:38:58;99531.66;;;9.68;66.76
9110;BME280;4590;51.462;6.692;2023-03-14T11:41:34;99536.66;;;9.74;66.03
9110;BME280;4590;51.462;6.692;2023-03-14T11:44:07;99547.97;;;9.73;66.14
9110;BME280;4590;51.462;6.692;2023-03-14T11:46:39;99550.22;;;9.71;66.66
9110;BME280;4590;51.462;6.692;2023-03-14T11:49:31;99561.56;;;9.61;67.31
9110;BME280;4590;51.462;6.692;2023-03-14T11:52:09;99573.81;;;9.72;67.01
9110;BME280;4590;51.462;6.692;2023-03-14T11:54:58;99577.84;;;9.74;67.49
9110;BME280;4590;51.462;6.692;2023-03-14T11:57:26;99578.59;;;9.83;67.49
9110;BME280;4590;51.462;6.692;2023-03-14T12:00:16;99587.59;;;9.93;66.72
9110;BME280;4590;51.462;6.692;2023-03-14T12:05:37;99610.31;;;10.19;66.82
9110;BME280;4590;51.462;6.692;2023-03-14T12:10:39;99612.69;;;10.29;63.98
9110;BME280;4590;51.462;6.692;2023-03-14T12:13:08;99614.59;;;10.37;64.38
9110;BME280;4590;51.462;6.692;2023-03-14T12:15:39;99621.84;;;10.42;63.42
9110;BME280;4590;51.462;6.692;2023-03-14T12:18:18;99631.13;;;10.29;61.77
9110;BME280;4590;51.462;6.692;2023-03-14T12:20:52;99640.16;;;10.38;62.64
9110;BME280;4590;51.462;6.692;2023-03-14T12:23:19;99649.72;;;10.32;62.29
9110;BME280;4590;51.462;6.692;2023-03-14T12:25:45;99666.75;;;10.16;62.63
9110;BME280;4590;51.462;6.692;2023-03-14T12:28:21;99672.09;;;10.13;61.95
9110;BME280;4590;51.462;6.692;2023-03-14T12:30:55;99691.31;;;10.13;62.62
9110;BME280;4590;51.462;6.692;2023-03-14T12:33:26;99699.59;;;10.04;62.27
9110;BME280;4590;51.462;6.692;2023-03-14T12:36:00;99703.66;;;10.07;62.51
9110;BME280;4590;51.462;6.692;2023-03-14T12:41:17;99726.13;;;10.00;61.52
9110;BME280;4590;51.462;6.692;2023-03-14T12:43:45;99725.31;;;10.00;62.51
9110;BME280;4590;51.462;6.692;2023-03-14T12:46:26;99738.56;;;9.98;63.04
9110;BME280;4590;51.462;6.692;2023-03-14T12:51:46;99738.41;;;10.03;62.47
9110;BME280;4590;51.462;6.692;2023-03-14T13:02:20;99791.09;;;10.13;62.38
9110;BME280;4590;51.462;6.692;2023-03-14T13:04:52;99813.72;;;10.10;60.66
9110;BME280;4590;51.462;6.692;2023-03-14T13:07:32;99826.50;;;9.98;60.56
9110;BME280;4590;51.462;6.692;2023-03-14T13:10:04;99826.03;;;9.78;60.67
9110;BME280;4590;51.462;6.692;2023-03-14T13:13:01;99829.56;;;9.62;60.67
9110;BME280;4590;51.462;6.692;2023-03-14T13:22:30;99865.91;;;9.41;61.74
9110;BME280;4590;51.462;6.692;2023-03-14T14:14:12;99939.22;;;10.32;52.70
9110;BME280;4590;51.462;6.692;2023-03-14T14:45:13;100018.88;;;9.98;46.69
9110;BME280;4590;51.462;6.692;2023-03-14T14:52:58;100024.06;;;9.91;45.22
9110;BME280;4590;51.462;6.692;2023-03-14T15:54:34;100194.75;;;9.67;45.78
9110;BME280;4590;51.462;6.692;2023-03-14T16:44:27;100339.34;;;9.27;44.33
9110;BME280;4590;51.462;6.692;2023-03-14T16:46:54;100339.81;;;9.29;44.41
9110;BME280;4590;51.462;6.692;2023-03-14T16:54:31;100366.06;;;9.21;44.20
9110;BME280;4590;51.462;6.692;2023-03-14T16:56:56;100369.41;;;9.18;43.92
9110;BME280;4590;51.462;6.692;2023-03-14T16:59:23;100375.63;;;9.10;44.65
9110;BME280;4590;51.462;6.692;2023-03-14T17:19:52;100430.59;;;8.77;44.57
9110;BME280;4590;51.462;6.692;2023-03-14T17:22:17;100446.53;;;8.75;44.21
9110;BME280;4590;51.462;6.692;2023-03-14T17:24:43;100458.09;;;8.72;44.17
9110;BME280;4590;51.462;6.692;2023-03-14T17:27:09;100456.25;;;8.68;44.13
9110;BME280;4590;51.462;6.692;2023-03-14T17:29:34;100466.59;;;8.57;44.03
9110;BME280;4590;51.462;6.692;2023-03-14T17:32:00;100467.09;;;8.59;44.53
9110;BME280;4590;51.462;6.692;2023-03-14T17:34:25;100470.97;;;8.58;44.28
9110;BME280;4590;51.462;6.692;2023-03-14T17:41:54;100497.34;;;8.54;44.48
9110;BME280;4590;51.462;6.692;2023-03-14T17:44:20;100496.81;;;8.52;44.24
9110;BME280;4590;51.462;6.692;2023-03-14T17:49:21;100509.22;;;8.50;44.71
9110;BME280;4590;51.462;6.692;2023-03-14T17:51:47;100525.69;;;8.50;44.61
9110;BME280;4590;51.462;6.692;2023-03-14T17:54:13;100531.47;;;8.48;44.51
9110;BME280;4590;51.462;6.692;2023-03-14T18:04:25;100562.50;;;8.43;44.65
9110;BME280;4590;51.462;6.692;2023-03-14T18:19:46;100586.00;;;8.26;45.53
9110;BME280;4590;51.462;6.692;2023-03-14T18:24:47;100606.59;;;8.23;45.56
9110;BME280;4590;51.462;6.692;2023-03-14T18:58:28;100672.00;;;8.11;46.14
9110;BME280;4590;51.462;6.692;2023-03-14T19:01:09;100674.56;;;8.02;45.56
9110;BME280;4590;51.462;6.692;2023-03-14T19:08:46;100686.03;;;8.04;45.84
9110;BME280;4590;51.462;6.692;2023-03-14T19:26:42;100724.63;;;7.84;46.74
9110;BME280;4590;51.462;6.692;2023-03-14T19:31:37;100721.09;;;7.79;46.33
9110;BME280;4590;51.462;6.692;2023-03-14T19:34:03;100721.66;;;7.75;46.58
9110;BME280;4590;51.462;6.692;2023-03-14T20:32:48;100801.66;;;6.89;49.07
9110;BME280;4590;51.462;6.692;2023-03-14T20:35:14;100801.91;;;6.88;49.38
9110;BME280;4590;51.462;6.692;2023-03-14T20:40:21;100803.03;;;6.87;49.26
9110;BME280;4590;51.462;6.692;2023-03-14T20:42:50;100806.31;;;6.84;49.56
9110;BME280;4590;51.462;6.692;2023-03-14T20:45:16;100810.69;;;6.80;49.59
9110;BME280;4590;51.462;6.692;2023-03-14T20:47:42;100808.81;;;6.75;49.93
9110;BME280;4590;51.462;6.692;2023-03-14T20:50:09;100824.41;;;6.75;50.39
9110;BME280;4590;51.462;6.692;2023-03-14T20:52:35;100826.88;;;6.71;49.88
9110;BME280;4590;51.462;6.692;2023-03-14T20:55:00;100833.44;;;6.65;49.68
9110;BME280;4590;51.462;6.692;2023-03-14T20:57:26;100820.06;;;6.58;50.51
9110;BME280;4590;51.462;6.692;2023-03-14T20:59:52;100828.00;;;6.55;50.68
9110;BME280;4590;51.462;6.692;2023-03-14T21:02:18;100832.66;;;6.49;50.52
9110;BME280;4590;51.462;6.692;2023-03-14T21:04:43;100840.34;;;6.42;50.46
9110;BME280;4590;51.462;6.692;2023-03-14T21:07:09;100838.44;;;6.38;50.94
9110;BME280;4590;51.462;6.692;2023-03-14T21:09:37;100826.94;;;6.36;51.14
9110;BME280;4590;51.462;6.692;2023-03-14T21:14:38;100841.16;;;6.32;51.42
9110;BME280;4590;51.462;6.692;2023-03-14T21:19:38;100841.75;;;6.29;51.29
9110;BME280;4590;51.462;6.692;2023-03-14T21:22:05;100840.63;;;6.30;51.30
9110;BME280;4590;51.462;6.692;2023-03-14T21:24:31;100839.53;;;6.31;51.72
9110;BME280;4590;51.462;6.692;2023-03-14T21:26:58;100835.69;;;6.32;51.28
9110;BME280;4590;51.462;6.692;2023-03-14T21:29:26;100848.53;;;6.32;51.38
9110;BME280;4590;51.462;6.692;2023-03-14T21:55:08;100865.78;;;6.12;52.12
9110;BME280;4590;51.462;6.692;2023-03-14T21:57:35;100867.69;;;6.12;51.82
9110;BME280;4590;51.462;6.692;2023-03-14T22:10:21;100855.13;;;6.16;51.59
9110;BME280;4590;51.462;6.692;2023-03-14T22:12:47;100858.66;;;6.16;52.12
9110;BME280;4590;51.462;6.692;2023-03-14T22:41:04;100877.00;;;6.11;52.14
9110;BME280;4590;51.462;6.692;2023-03-14T22:46:05;100875.63;;;6.13;52.11
9110;BME280;4590;51.462;6.692;2023-03-14T22:53:41;100892.53;;;6.15;52.49
9110;BME280;4590;51.462;6.692;2023-03-14T22:56:08;100880.53;;;6.16;52.56
9110;BME280;4590;51.462;6.692;2023-03-14T23:01:08;100879.69;;;6.16;52.89
